Time;durP1;ratioP1;P1;durP2;ratioP2;P2;SDS_P1;SDS_P2;PMS_P1;PMS_P2;Temp;Humidity;BMP_temperature;BMP_pressure;BME280_temperature;BME280_humidity;BME280_pressure;Samples;Min_cycle;Max_cycle;Signal;HPM_P1;HPM_P2
2022/03/20 04:02:22;;;;;;;24.07;19.33;;;3.80;99.90;;;;;;5010667;23;20266;-77
2022/03/20 04:04:48;;;;;;;25.40;20.80;;;3.80;99.90;;;;;;4905185;29;20215;-77
2022/03/20 04:07:18;;;;;;;29.67;19.97;;;3.90;99.90;;;;;;4907814;29;20179;-77
2022/03/20 04:09:45;;;;;;;26.93;21.07;;;3.90;99.90;;;;;;4897934;29;20567;-77
2022/03/20 04:12:13;;;;;;;33.87;21.97;;;3.90;99.90;;;;;;4909887;29;20207;-77
2022/03/20 04:14:40;;;;;;;30.17;22.90;;;4.00;99.90;;;;;;4946403;23;20229;-77
2022/03/20 04:17:06;;;;;;;31.07;25.53;;;4.10;99.90;;;;;;4974038;28;20185;-77
2022/03/20 04:19:32;;;;;;;30.20;25.10;;;4.10;99.90;;;;;;4973288;28;20196;-77
2022/03/20 04:21:59;;;;;;;31.43;23.93;;;4.10;99.90;;;;;;4973159;28;20292;-77
2022/03/20 04:24:25;;;;;;;28.10;23.90;;;4.10;99.90;;;;;;4971504;28;20882;-77
2022/03/20 04:26:53;;;;;;;36.07;26.37;;;4.10;99.90;;;;;;4953876;29;20275;-77
2022/03/20 04:29:20;;;;;;;30.03;22.33;;;4.20;99.90;;;;;;4954491;29;20200;-77
2022/03/20 04:31:50;;;;;;;26.73;21.07;;;4.20;99.90;;;;;;4954999;28;20603;-76
2022/03/20 04:34:16;;;;;;;26.50;20.00;;;4.30;99.90;;;;;;4955313;28;20182;-77
2022/03/20 04:36:42;;;;;;;30.60;21.40;;;4.30;99.90;;;;;;4953824;29;20196;-76
2022/03/20 04:39:08;;;;;;;28.33;22.23;;;4.40;99.90;;;;;;4953704;29;20192;-77
2022/03/20 04:41:35;;;;;;;28.63;23.47;;;4.50;99.90;;;;;;4955287;28;20181;-76
2022/03/20 04:44:01;;;;;;;30.23;22.63;;;4.70;99.90;;;;;;4956138;28;20194;-75
2022/03/20 04:46:27;;;;;;;32.70;23.50;;;4.80;99.90;;;;;;4956416;28;20198;-76
2022/03/20 04:59:53;;;;;;;29.00;21.03;;;4.90;99.90;;;;;;4955403;29;20186;-77
2022/03/20 05:02:19;;;;;;;27.07;21.67;;;4.90;99.90;;;;;;4954518;28;20252;-77
2022/03/20 05:04:44;;;;;;;28.23;21.40;;;4.80;99.90;;;;;;4953652;29;20214;-76
2022/03/20 05:07:10;;;;;;;28.17;20.53;;;4.90;99.90;;;;;;4953677;29;20201;-77
2022/03/20 05:15:09;;;;;;;32.33;22.27;;;4.90;99.90;;;;;;4954525;29;20272;-77
2022/03/20 05:17:36;;;;;;;28.60;21.43;;;4.90;99.90;;;;;;4952949;29;20257;-77
2022/03/20 05:20:05;;;;;;;26.47;20.23;;;5.00;99.90;;;;;;4952799;29;20177;-76
2022/03/20 05:22:34;;;;;;;30.87;22.13;;;5.10;99.90;;;;;;4954224;28;20212;-76
2022/03/20 05:25:02;;;;;;;29.90;21.20;;;5.20;99.90;;;;;;4954139;28;20237;-76
2022/03/20 05:27:27;;;;;;;29.53;20.77;;;5.30;99.90;;;;;;4955360;28;20240;-77
2022/03/20 05:29:53;;;;;;;31.27;22.23;;;5.30;99.90;;;;;;4954959;28;20598;-76
2022/03/20 05:32:20;;;;;;;31.03;22.93;;;5.40;99.90;;;;;;4954080;28;20186;-77
2022/03/20 05:34:46;;;;;;;28.57;21.83;;;5.40;99.90;;;;;;4954459;28;20248;-76
2022/03/20 05:37:12;;;;;;;28.70;21.23;;;5.50;99.90;;;;;;4953336;29;20216;-77
2022/03/20 05:39:38;;;;;;;28.10;21.97;;;5.40;99.90;;;;;;4954574;28;20186;-77
2022/03/20 05:42:05;;;;;;;29.30;21.60;;;5.50;99.90;;;;;;4954119;28;20192;-77
2022/03/20 05:44:32;;;;;;;28.43;18.97;;;5.50;99.90;;;;;;4954648;28;20268;-77
2022/03/20 05:47:00;;;;;;;29.83;21.23;;;5.50;99.90;;;;;;4964996;29;20200;-76
2022/03/20 05:49:26;;;;;;;30.10;21.17;;;5.50;99.90;;;;;;4954714;29;20188;-76
2022/03/20 05:51:54;;;;;;;30.00;23.57;;;5.60;99.90;;;;;;4953761;29;20268;-76
2022/03/20 05:54:20;;;;;;;27.40;21.67;;;5.60;99.90;;;;;;4952449;29;20174;-77
2022/03/20 05:59:32;;;;;;;27.70;22.10;;;5.70;99.90;;;;;;4953143;29;20181;-76
2022/03/20 06:01:59;;;;;;;31.27;21.63;;;5.80;99.90;;;;;;4956905;28;20182;-79
2022/03/20 06:04:25;;;;;;;29.90;20.77;;;5.80;99.90;;;;;;4945573;28;20205;-73
2022/03/20 06:06:51;;;;;;;28.80;21.27;;;5.90;99.90;;;;;;4935796;28;20277;-73
2022/03/20 06:09:17;;;;;;;26.27;21.97;;;6.00;99.90;;;;;;4945905;29;20190;-73
2022/03/20 06:11:43;;;;;;;28.13;19.33;;;6.10;99.90;;;;;;4952893;29;20276;-73
2022/03/20 06:14:09;;;;;;;27.70;19.30;;;6.10;99.90;;;;;;4953239;28;20193;-73
2022/03/20 06:16:36;;;;;;;30.60;20.97;;;6.20;99.90;;;;;;4952897;28;20420;-73
2022/03/20 06:19:03;;;;;;;30.13;21.13;;;6.30;99.90;;;;;;4950956;29;20178;-73
2022/03/20 06:21:29;;;;;;;23.17;17.90;;;6.30;99.90;;;;;;4952682;28;20619;-73
2022/03/20 06:23:55;;;;;;;29.43;19.77;;;6.40;99.90;;;;;;4941798;28;20186;-73
2022/03/20 06:26:23;;;;;;;27.43;20.50;;;6.40;99.90;;;;;;4933854;29;20270;-73
2022/03/20 06:28:49;;;;;;;28.93;20.03;;;6.40;99.90;;;;;;4939573;29;20368;-73
2022/03/20 06:31:16;;;;;;;29.03;20.47;;;6.30;99.90;;;;;;4952972;28;20182;-73
2022/03/20 06:33:46;;;;;;;30.20;19.53;;;6.30;99.90;;;;;;4952708;28;20204;-73
2022/03/20 06:36:12;;;;;;;31.37;21.17;;;6.40;99.90;;;;;;4952647;28;20217;-73
2022/03/20 06:38:39;;;;;;;27.57;20.40;;;6.40;99.90;;;;;;4952270;28;20174;-73
2022/03/20 06:41:09;;;;;;;32.80;22.00;;;6.50;99.90;;;;;;4952441;28;20281;-73
2022/03/20 06:43:37;;;;;;;28.70;21.53;;;6.60;99.90;;;;;;4952859;28;20190;-73
2022/03/20 06:46:06;;;;;;;29.07;21.70;;;6.80;99.90;;;;;;4953008;28;20244;-73
2022/03/20 06:48:33;;;;;;;32.60;20.10;;;6.90;99.90;;;;;;4951974;29;20181;-72
2022/03/20 06:50:59;;;;;;;29.27;21.80;;;7.00;99.90;;;;;;4952601;28;20181;-73
2022/03/20 06:53:25;;;;;;;26.93;19.23;;;7.00;99.90;;;;;;4952748;29;20194;-73
2022/03/20 06:55:51;;;;;;;28.93;22.73;;;6.90;99.90;;;;;;4951146;29;20224;-73
2022/03/20 06:58:18;;;;;;;32.70;22.97;;;6.80;99.90;;;;;;4950884;29;20186;-73
2022/03/20 07:00:46;;;;;;;29.03;19.47;;;6.80;99.90;;;;;;4951222;29;20182;-72
2022/03/20 07:03:12;;;;;;;32.40;22.73;;;7.00;99.90;;;;;;4952341;28;20190;-73
2022/03/20 07:05:41;;;;;;;26.80;20.40;;;7.00;99.90;;;;;;4952449;28;20725;-71
2022/03/20 07:08:08;;;;;;;28.37;20.30;;;7.00;99.90;;;;;;4952348;28;20653;-71
2022/03/20 07:10:35;;;;;;;22.67;15.50;;;7.20;99.90;;;;;;4952831;28;20189;-72
2022/03/20 07:15:48;;;;;;;26.60;21.37;;;7.70;99.90;;;;;;4952431;28;20221;-73
2022/03/20 07:18:17;;;;;;;30.37;21.03;;;8.10;99.90;;;;;;4950747;29;20659;-73
2022/03/20 07:20:44;;;;;;;31.23;20.87;;;8.50;99.90;;;;;;4952571;28;20185;-73
2022/03/20 07:23:11;;;;;;;21.93;17.73;;;8.70;99.90;;;;;;4951526;29;20174;-73
2022/03/20 07:31:11;;;;;;;29.47;20.60;;;8.70;99.90;;;;;;4952411;28;20181;-73
2022/03/20 07:33:38;;;;;;;29.53;18.73;;;8.60;99.90;;;;;;4954397;28;20187;-73
2022/03/20 07:36:05;;;;;;;31.03;21.70;;;8.70;99.90;;;;;;4959121;28;20575;-72
2022/03/20 07:38:31;;;;;;;29.77;19.03;;;8.80;99.90;;;;;;4955352;28;20183;-72
2022/03/20 07:40:57;;;;;;;25.60;18.93;;;9.20;99.90;;;;;;4955773;28;20746;-71
2022/03/20 07:43:23;;;;;;;36.30;18.70;;;9.30;99.90;;;;;;4956090;28;20178;-73
2022/03/20 07:45:50;;;;;;;27.67;19.63;;;9.50;99.70;;;;;;4954671;29;20284;-71
2022/03/20 07:48:15;;;;;;;25.13;18.00;;;9.50;98.50;;;;;;4954956;28;20190;-71
2022/03/20 07:50:41;;;;;;;27.40;21.10;;;9.60;98.50;;;;;;4954490;29;20205;-72
2022/03/20 07:53:07;;;;;;;26.33;20.63;;;9.80;98.80;;;;;;4955993;29;20625;-73
2022/03/20 07:55:34;;;;;;;26.80;20.67;;;10.00;97.80;;;;;;4955471;29;20693;-72
2022/03/20 07:58:01;;;;;;;27.47;21.23;;;10.30;96.40;;;;;;4953887;29;20181;-72
2022/03/20 08:00:27;;;;;;;28.07;22.27;;;10.40;95.70;;;;;;4955605;29;20185;-72
2022/03/20 08:02:53;;;;;;;25.67;16.33;;;10.50;95.40;;;;;;4955734;28;20232;-71
2022/03/20 08:05:19;;;;;;;29.30;20.13;;;10.50;94.00;;;;;;4955520;28;20210;-71
2022/03/20 08:07:45;;;;;;;26.43;20.00;;;10.50;94.40;;;;;;4955153;28;20186;-71
2022/03/20 08:10:12;;;;;;;29.27;21.20;;;10.80;94.10;;;;;;4955463;29;20185;-71
2022/03/20 08:12:39;;;;;;;27.73;17.97;;;11.00;93.20;;;;;;4955625;28;20182;-67
2022/03/20 08:15:06;;;;;;;32.30;21.10;;;11.20;93.20;;;;;;4948894;28;20674;-71
2022/03/20 08:17:41;;;;;;;24.97;19.90;;;11.40;92.10;;;;;;4945742;28;20284;-72
2022/03/20 08:20:07;;;;;;;25.23;19.00;;;11.60;90.90;;;;;;4955178;28;20182;-72
2022/03/20 08:22:33;;;;;;;22.20;18.30;;;11.60;90.30;;;;;;4954888;28;20182;-71
2022/03/20 08:24:58;;;;;;;26.83;20.23;;;11.60;90.00;;;;;;4954932;28;20491;-71
2022/03/20 08:27:24;;;;;;;26.33;20.63;;;11.80;90.00;;;;;;4954426;28;20260;-71
2022/03/20 08:29:50;;;;;;;24.30;18.73;;;12.00;87.60;;;;;;4954610;28;20197;-72
2022/03/20 08:32:16;;;;;;;28.37;21.17;;;12.00;86.10;;;;;;4953674;29;20243;-71
2022/03/20 08:34:42;;;;;;;25.17;18.37;;;12.00;86.00;;;;;;4953486;29;20208;-71
2022/03/20 08:37:08;;;;;;;24.90;19.50;;;12.10;85.20;;;;;;4952601;29;20650;-70
2022/03/20 08:39:33;;;;;;;24.43;17.23;;;12.30;85.90;;;;;;4953631;29;20215;-71
2022/03/20 08:41:59;;;;;;;25.90;18.67;;;12.40;81.90;;;;;;4953256;29;20590;-71
2022/03/20 08:44:26;;;;;;;27.13;20.53;;;12.00;82.80;;;;;;4948721;28;20196;-65
2022/03/20 08:46:55;;;;;;;25.20;18.60;;;11.80;85.10;;;;;;4954649;28;20178;-67
2022/03/20 08:49:21;;;;;;;26.40;20.10;;;11.80;84.80;;;;;;4954651;29;20192;-68
2022/03/20 08:51:47;;;;;;;29.93;21.27;;;11.90;84.90;;;;;;4954435;29;20177;-66
2022/03/20 08:54:12;;;;;;;28.27;18.93;;;12.30;83.10;;;;;;4952737;28;20279;-67
2022/03/20 08:56:40;;;;;;;23.93;19.93;;;12.90;80.90;;;;;;4951887;28;20218;-66
2022/03/20 08:59:06;;;;;;;24.23;20.37;;;13.00;79.60;;;;;;4946748;29;20683;-68
2022/03/20 09:01:32;;;;;;;26.83;20.37;;;13.40;79.90;;;;;;4954275;29;20267;-67
2022/03/20 09:03:58;;;;;;;25.83;20.27;;;14.10;76.80;;;;;;4948160;28;20178;-67
2022/03/20 09:06:24;;;;;;;25.47;20.50;;;14.30;74.30;;;;;;4941621;29;20205;-67
2022/03/20 09:08:51;;;;;;;24.13;18.33;;;14.50;73.10;;;;;;4953832;29;20193;-67
2022/03/20 09:11:18;;;;;;;23.63;18.33;;;14.80;71.70;;;;;;4954186;28;20189;-66
2022/03/20 09:13:44;;;;;;;25.17;18.63;;;14.70;68.60;;;;;;4942570;28;20269;-66
2022/03/20 09:19:03;;;;;;;26.10;19.83;;;14.70;69.30;;;;;;4944963;29;20185;-67
2022/03/20 09:21:32;;;;;;;23.90;18.50;;;14.70;68.90;;;;;;4953310;29;20185;-71
2022/03/20 09:23:58;;;;;;;24.07;19.20;;;15.20;66.50;;;;;;4948108;29;20194;-72
2022/03/20 09:26:24;;;;;;;24.03;19.10;;;15.30;65.30;;;;;;4946419;29;20236;-72
2022/03/20 09:28:50;;;;;;;26.20;18.70;;;15.50;63.70;;;;;;4951504;29;20654;-72
2022/03/20 09:31:16;;;;;;;22.83;18.20;;;15.60;63.20;;;;;;4950805;29;20196;-72
2022/03/20 09:33:43;;;;;;;24.53;18.90;;;15.80;64.00;;;;;;4952538;28;20274;-71
2022/03/20 09:36:10;;;;;;;27.50;18.97;;;15.80;61.90;;;;;;4950709;29;20217;-70
2022/03/20 09:38:36;;;;;;;24.33;19.73;;;15.90;61.70;;;;;;4951941;28;20540;-71
2022/03/20 09:41:07;;;;;;;23.77;19.97;;;16.10;61.20;;;;;;4951091;29;20186;-71
2022/03/20 09:43:45;;;;;;;22.80;18.73;;;16.80;61.10;;;;;;4952242;28;20186;-71
2022/03/20 09:46:11;;;;;;;24.87;19.50;;;17.50;57.70;;;;;;4953521;28;20205;-72
2022/03/20 09:48:37;;;;;;;27.67;19.37;;;18.00;55.70;;;;;;4953427;28;20277;-72
2022/03/20 09:51:05;;;;;;;25.63;20.00;;;17.80;55.20;;;;;;4953832;28;20181;-71
2022/03/20 09:53:31;;;;;;;24.00;20.77;;;17.80;55.20;;;;;;4953602;28;20260;-71
2022/03/20 09:55:57;;;;;;;23.83;20.20;;;17.70;54.70;;;;;;4952454;28;20240;-71
2022/03/20 09:58:25;;;;;;;24.40;20.23;;;17.70;53.80;;;;;;4953240;28;20182;-71
2022/03/20 10:00:55;;;;;;;26.73;21.37;;;17.60;53.80;;;;;;4952495;29;20186;-71
2022/03/20 10:03:25;;;;;;;24.43;19.33;;;18.00;53.90;;;;;;4953465;29;20182;-71
2022/03/20 10:06:06;;;;;;;24.70;19.10;;;18.80;51.70;;;;;;4953118;28;20194;-70
2022/03/20 10:08:32;;;;;;;25.17;19.63;;;18.90;51.20;;;;;;4953114;29;20224;-71
2022/03/20 10:11:17;;;;;;;22.23;18.00;;;18.80;51.80;;;;;;4953625;28;20182;-71
2022/03/20 10:14:10;;;;;;;27.00;20.67;;;19.10;51.00;;;;;;4952244;29;20213;-71
2022/03/20 10:16:41;;;;;;;26.20;19.93;;;19.70;49.00;;;;;;4972803;23;20233;-70
2022/03/20 10:19:22;;;;;;;21.90;18.50;;;19.60;49.10;;;;;;4951207;29;20236;-71
2022/03/20 10:22:17;;;;;;;23.97;19.90;;;20.00;48.30;;;;;;4953204;28;20181;-71
2022/03/20 10:24:48;;;;;;;23.37;19.87;;;19.90;47.30;;;;;;4951621;29;20188;-69
2022/03/20 10:27:14;;;;;;;22.53;18.80;;;20.30;48.10;;;;;;4943598;28;20205;-70
2022/03/20 10:29:51;;;;;;;23.30;19.23;;;20.70;47.00;;;;;;4950941;29;20265;-71
2022/03/20 10:32:18;;;;;;;21.27;18.60;;;20.80;46.00;;;;;;4967746;28;20193;-70
2022/03/20 10:35:04;;;;;;;25.03;21.27;;;21.20;45.50;;;;;;4936390;29;20189;-70
2022/03/20 10:37:45;;;;;;;22.93;19.97;;;21.70;43.60;;;;;;4938194;29;20188;-69
2022/03/20 10:40:20;;;;;;;24.07;20.17;;;21.70;42.30;;;;;;4952818;28;20261;-70
2022/03/20 10:43:15;;;;;;;24.90;22.30;;;21.50;42.90;;;;;;4952599;28;20185;-69
2022/03/20 10:45:54;;;;;;;26.47;21.60;;;21.50;43.20;;;;;;4946463;29;20690;-69
2022/03/20 10:48:42;;;;;;;30.27;27.37;;;21.70;42.00;;;;;;4944645;28;20193;-69
2022/03/20 10:51:09;;;;;;;30.90;27.90;;;22.40;40.20;;;;;;4952699;29;20189;-70
2022/03/20 10:53:35;;;;;;;27.37;24.67;;;22.20;39.00;;;;;;4952472;29;20190;-68
2022/03/20 10:56:07;;;;;;;27.00;24.38;;;21.90;40.30;;;;;;4952710;28;20224;-73
2022/03/20 10:58:37;;;;;;;30.23;27.05;;;22.00;40.80;;;;;;4951555;29;20193;-79
2022/03/20 11:01:03;;;;;;;29.58;26.50;;;22.80;40.70;;;;;;4953576;28;20178;-78
2022/03/20 11:03:29;;;;;;;25.10;22.58;;;23.00;39.80;;;;;;4947477;29;20721;-67
2022/03/20 11:05:57;;;;;;;25.50;22.75;;;23.40;38.50;;;;;;4946844;28;20767;-67
2022/03/20 11:08:25;;;;;;;22.35;18.58;;;22.90;39.20;;;;;;4946181;28;20197;-67
2022/03/20 11:10:53;;;;;;;19.90;16.88;;;23.10;37.20;;;;;;4954494;28;20658;-67
2022/03/20 11:13:21;;;;;;;20.40;17.50;;;23.40;38.10;;;;;;4941450;28;20769;-68
2022/03/20 11:15:48;;;;;;;18.45;16.40;;;23.50;38.00;;;;;;4949140;28;20213;-68
2022/03/20 11:18:15;;;;;;;22.15;16.85;;;23.60;36.90;;;;;;4955950;28;20189;-69
2022/03/20 11:20:45;;;;;;;21.00;16.92;;;24.00;36.50;;;;;;4955982;29;20181;-67
2022/03/20 11:23:13;;;;;;;21.70;16.77;;;24.00;35.70;;;;;;4956193;28;20184;-68
2022/03/20 11:25:42;;;;;;;19.70;17.50;;;23.60;36.30;;;;;;4942806;28;20361;-67
2022/03/20 11:28:11;;;;;;;21.45;18.00;;;23.20;37.50;;;;;;4936812;29;20197;-67
2022/03/20 11:30:38;;;;;;;20.95;17.17;;;23.10;37.80;;;;;;4937049;29;20269;-66
2022/03/20 11:33:05;;;;;;;20.90;17.70;;;24.30;35.60;;;;;;4936839;29;20333;-66
2022/03/20 11:35:33;;;;;;;23.60;19.10;;;24.80;34.90;;;;;;4937212;28;20210;-66
2022/03/20 11:38:18;;;;;;;21.67;16.50;;;24.60;33.70;;;;;;4936680;29;20612;-66
2022/03/20 11:41:17;;;;;;;20.05;16.35;;;24.10;34.50;;;;;;4936821;29;20178;-67
2022/03/20 11:43:47;;;;;;;23.35;17.98;;;23.70;35.60;;;;;;4915107;29;20195;-67
2022/03/20 11:46:22;;;;;;;20.92;16.50;;;24.10;34.90;;;;;;4954605;29;20213;-68
2022/03/20 11:49:12;;;;;;;23.45;16.23;;;24.30;35.30;;;;;;4954271;28;20189;-68
2022/03/20 11:51:55;;;;;;;19.55;16.02;;;24.80;33.50;;;;;;4954406;29;20190;-68
2022/03/20 11:54:27;;;;;;;21.20;18.88;;;24.50;33.30;;;;;;4955315;29;20210;-67
2022/03/20 11:56:54;;;;;;;20.08;16.20;;;25.10;32.70;;;;;;4955116;28;20345;-68
2022/03/20 11:59:45;;;;;;;23.70;17.45;;;24.60;33.50;;;;;;4954061;29;20182;-68
2022/03/20 12:02:16;;;;;;;18.88;16.33;;;24.50;33.30;;;;;;4954294;29;20750;-75
2022/03/20 12:05:07;;;;;;;21.35;17.35;;;24.90;32.80;;;;;;4949602;28;20190;-72
2022/03/20 12:07:49;;;;;;;18.15;16.33;;;25.20;32.10;;;;;;4936718;29;20217;-76
2022/03/20 12:10:20;;;;;;;22.95;17.23;;;25.50;31.40;;;;;;4936987;29;20297;-76
2022/03/20 12:13:33;;;;;;;19.88;17.15;;;25.40;30.90;;;;;;4936592;29;20261;-76
2022/03/20 12:15:58;;;;;;;18.27;16.35;;;25.00;31.30;;;;;;4896905;29;20242;-76
2022/03/20 12:18:24;;;;;;;19.60;16.60;;;24.90;32.70;;;;;;4897291;29;20755;-77
2022/03/20 12:21:02;;;;;;;19.23;16.73;;;25.70;31.00;;;;;;4922446;29;20202;-77
2022/03/20 12:23:37;;;;;;;19.30;16.48;;;25.50;31.50;;;;;;4936085;28;20186;-77
2022/03/20 12:26:33;;;;;;;19.83;17.67;;;26.50;31.00;;;;;;4936195;28;20295;-77
2022/03/20 12:29:35;;;;;;;17.98;16.17;;;26.60;30.60;;;;;;4935574;28;20193;-77
2022/03/20 12:32:06;;;;;;;19.90;17.10;;;26.60;29.70;;;;;;4935361;29;20186;-77
2022/03/20 12:34:33;;;;;;;21.00;17.45;;;26.60;29.60;;;;;;4939582;28;20688;-78
2022/03/20 12:40:16;;;;;;;22.77;16.65;;;26.90;29.90;;;;;;4955757;29;20217;-78
2022/03/20 12:43:03;;;;;;;22.00;17.23;;;26.70;29.50;;;;;;4955245;28;20192;-77
2022/03/20 12:45:31;;;;;;;22.20;18.27;;;25.20;31.50;;;;;;4953401;29;20206;-77
2022/03/20 12:48:08;;;;;;;20.20;18.05;;;25.10;32.20;;;;;;4954922;28;20881;-76
2022/03/20 12:50:41;;;;;;;24.95;18.27;;;26.40;30.70;;;;;;4955103;28;20213;-76
2022/03/20 12:53:09;;;;;;;19.75;17.67;;;26.30;30.20;;;;;;4953741;28;20192;-76
2022/03/20 12:55:38;;;;;;;22.33;17.92;;;25.90;30.30;;;;;;4954772;28;20305;-77
2022/03/20 12:58:04;;;;;;;22.77;17.08;;;27.00;29.90;;;;;;4955541;28;20182;-79
2022/03/20 13:00:33;;;;;;;20.48;17.38;;;27.30;29.20;;;;;;4954307;29;20193;-77
2022/03/20 13:03:03;;;;;;;21.02;17.20;;;26.90;29.60;;;;;;4955769;28;20638;-76
2022/03/20 13:05:45;;;;;;;18.60;16.70;;;27.10;30.00;;;;;;4952666;29;20205;-76
2022/03/20 13:08:18;;;;;;;21.65;17.33;;;26.80;31.10;;;;;;4952989;29;20190;-76
2022/03/20 13:10:44;;;;;;;20.60;17.45;;;26.80;29.30;;;;;;4954831;29;20539;-77
2022/03/20 13:13:12;;;;;;;21.02;16.95;;;27.20;30.50;;;;;;4953103;28;20186;-76
2022/03/20 13:15:40;;;;;;;18.75;16.63;;;28.60;28.90;;;;;;4947407;28;20713;-76
2022/03/20 13:18:10;;;;;;;19.60;15.40;;;28.90;27.60;;;;;;4954222;28;20177;-75
2022/03/20 13:20:46;;;;;;;19.88;16.27;;;28.50;27.50;;;;;;4953947;28;20672;-76
2022/03/20 13:23:21;;;;;;;20.98;17.08;;;28.40;27.40;;;;;;4936058;28;20226;-76
2022/03/20 13:25:52;;;;;;;21.35;17.20;;;27.80;28.70;;;;;;4933996;29;20293;-77
2022/03/20 13:28:29;;;;;;;19.73;16.45;;;28.00;29.00;;;;;;4933258;29;20193;-77
2022/03/20 13:31:01;;;;;;;22.45;16.80;;;28.50;27.90;;;;;;4934723;28;20296;-75
2022/03/20 13:33:35;;;;;;;18.67;15.77;;;28.80;27.80;;;;;;4933338;29;20562;-75
2022/03/20 13:36:08;;;;;;;19.13;14.77;;;28.50;27.20;;;;;;4947994;28;20209;-75
2022/03/20 13:38:43;;;;;;;18.27;14.70;;;28.00;27.30;;;;;;4952182;28;20669;-75
2022/03/20 13:41:15;;;;;;;21.25;15.40;;;27.80;27.80;;;;;;4954379;28;20569;-75
2022/03/20 13:43:42;;;;;;;21.33;17.05;;;27.70;28.10;;;;;;4952647;29;20660;-75
2022/03/20 13:46:20;;;;;;;21.80;17.02;;;27.80;28.30;;;;;;4952096;28;20213;-75
2022/03/20 13:48:48;;;;;;;21.08;16.67;;;27.30;28.70;;;;;;4960135;29;20193;-74
2022/03/20 13:51:17;;;;;;;21.63;18.52;;;25.80;29.30;;;;;;4959352;28;20189;-75
2022/03/20 13:53:43;;;;;;;24.00;16.42;;;25.30;30.00;;;;;;4953952;28;20671;-75
2022/03/20 13:56:25;;;;;;;19.17;17.02;;;25.70;30.10;;;;;;4952937;28;20205;-76
2022/03/20 13:59:11;;;;;;;22.45;17.88;;;25.70;29.90;;;;;;4953773;28;20714;-75
2022/03/20 14:01:47;;;;;;;18.63;15.55;;;24.90;30.50;;;;;;4953707;28;20217;-75
2022/03/20 14:04:18;;;;;;;19.05;16.50;;;24.90;30.80;;;;;;4953798;28;20564;-75
2022/03/20 14:06:45;;;;;;;20.77;15.60;;;24.30;31.80;;;;;;4953259;29;20212;-76
2022/03/20 14:09:13;;;;;;;21.67;16.83;;;23.90;32.40;;;;;;4953450;28;20217;-76
2022/03/20 14:11:40;;;;;;;24.35;18.33;;;23.20;33.40;;;;;;4953423;29;20709;-76
2022/03/20 14:14:07;;;;;;;19.17;16.70;;;22.60;34.30;;;;;;4952297;29;20666;-76
2022/03/20 14:16:34;;;;;;;18.92;16.25;;;22.60;34.30;;;;;;4935306;29;20234;-76
2022/03/20 14:19:11;;;;;;;22.65;17.08;;;22.40;34.60;;;;;;4932802;29;20233;-76
2022/03/20 14:21:37;;;;;;;22.25;17.38;;;22.60;34.80;;;;;;4934285;29;20553;-76
2022/03/20 14:24:12;;;;;;;18.93;15.67;;;22.40;35.30;;;;;;4934125;29;20183;-76
2022/03/20 14:26:45;;;;;;;21.67;16.42;;;22.00;35.40;;;;;;4933144;29;20260;-76
2022/03/20 14:40:56;;;;;;;18.83;16.42;;;23.20;34.30;;;;;;4934007;29;20282;-76
2022/03/20 14:43:26;;;;;;;20.17;16.70;;;23.60;34.20;;;;;;4933490;29;20182;-75
2022/03/20 14:45:56;;;;;;;22.40;18.17;;;23.90;33.70;;;;;;4944519;29;20293;-76
2022/03/20 14:48:23;;;;;;;21.52;18.65;;;23.20;34.60;;;;;;4953350;28;20196;-75
2022/03/20 14:50:50;;;;;;;24.52;18.02;;;23.60;34.50;;;;;;4951709;29;20680;-75
2022/03/20 14:53:23;;;;;;;18.70;15.93;;;24.10;33.90;;;;;;4952858;29;20185;-75
2022/03/20 14:55:50;;;;;;;25.23;15.70;;;23.30;33.80;;;;;;4941711;28;20285;-75
2022/03/20 14:58:16;;;;;;;21.30;15.70;;;22.70;35.40;;;;;;4933504;29;20182;-75
2022/03/20 15:00:42;;;;;;;23.10;16.77;;;22.70;34.60;;;;;;4933946;29;20194;-76
2022/03/20 15:03:08;;;;;;;23.57;18.13;;;22.70;34.60;;;;;;4932535;29;20269;-75
2022/03/20 15:05:34;;;;;;;23.93;21.47;;;22.00;35.40;;;;;;4941739;29;20237;-75
2022/03/20 15:13:29;;;;;;;25.63;23.17;;;21.80;35.30;;;;;;4952939;29;20190;-75
2022/03/20 15:15:54;;;;;;;24.73;22.30;;;21.30;35.70;;;;;;4942109;28;20214;-76
2022/03/20 15:18:20;;;;;;;28.93;26.23;;;20.60;36.60;;;;;;4933370;29;20186;-76
2022/03/20 15:20:46;;;;;;;31.43;28.47;;;19.90;37.90;;;;;;4932421;29;20225;-76
2022/03/20 15:23:12;;;;;;;32.07;28.40;;;19.50;39.60;;;;;;4933591;29;20178;-75
2022/03/20 15:25:39;;;;;;;30.30;27.37;;;19.20;40.10;;;;;;4941198;29;20197;-74
2022/03/20 15:28:05;;;;;;;34.60;31.30;;;19.10;40.70;;;;;;4952360;29;20186;-75
2022/03/20 15:30:31;;;;;;;31.77;28.87;;;19.20;40.50;;;;;;4951530;29;20178;-75
2022/03/20 15:33:00;;;;;;;37.10;33.53;;;19.20;40.50;;;;;;4951374;28;20186;-75
2022/03/20 15:35:26;;;;;;;35.40;32.20;;;19.30;40.70;;;;;;4945515;28;20269;-75
2022/03/20 15:37:52;;;;;;;32.27;29.37;;;19.50;40.60;;;;;;4933072;29;20254;-74
2022/03/20 15:40:18;;;;;;;32.10;28.67;;;19.60;40.10;;;;;;4933409;28;20183;-75
2022/03/20 15:42:45;;;;;;;33.50;30.23;;;19.90;40.10;;;;;;4933423;29;20194;-76
2022/03/20 15:45:11;;;;;;;32.53;29.37;;;19.80;38.90;;;;;;4934185;29;20285;-76
2022/03/20 15:47:37;;;;;;;29.70;26.73;;;20.00;39.00;;;;;;4933413;29;20194;-76
2022/03/20 15:50:07;;;;;;;30.47;27.23;;;20.10;38.70;;;;;;4933450;29;20182;-76
2022/03/20 15:52:34;;;;;;;29.60;26.50;;;19.80;38.80;;;;;;4933801;29;20659;-76
2022/03/20 15:55:00;;;;;;;27.40;24.87;;;19.80;39.00;;;;;;4935703;29;20198;-76
2022/03/20 15:57:25;;;;;;;27.37;24.60;;;19.70;38.60;;;;;;4936526;29;20218;-76
2022/03/20 15:59:51;;;;;;;29.47;26.67;;;19.70;38.90;;;;;;4936831;29;20265;-75
2022/03/20 16:02:17;;;;;;;28.40;25.30;;;19.80;38.60;;;;;;4936881;29;20564;-76
2022/03/20 16:04:43;;;;;;;28.17;25.23;;;20.00;39.00;;;;;;4936612;29;20669;-76
2022/03/20 16:07:09;;;;;;;29.93;27.20;;;20.50;38.10;;;;;;4955028;29;20248;-75
2022/03/20 16:09:35;;;;;;;26.60;24.07;;;20.70;38.10;;;;;;4956294;29;20181;-75
2022/03/20 16:12:01;;;;;;;29.13;26.43;;;20.60;38.00;;;;;;4958404;29;20189;-76
2022/03/20 16:14:27;;;;;;;27.70;24.80;;;20.60;38.30;;;;;;4955626;28;20186;-75
2022/03/20 16:16:54;;;;;;;28.43;25.80;;;20.40;37.90;;;;;;4972535;23;20236;-75
2022/03/20 16:19:19;;;;;;;28.50;25.90;;;20.10;39.00;;;;;;4955079;29;20229;-75
2022/03/20 16:21:45;;;;;;;30.00;27.07;;;19.90;39.30;;;;;;4955722;29;20189;-75
2022/03/20 16:30:17;;;;;;;30.77;27.70;;;19.90;38.90;;;;;;4877617;29;20188;-75
2022/03/20 16:32:44;;;;;;;31.17;28.33;;;19.20;39.60;;;;;;4932239;29;20658;-76
2022/03/20 16:35:10;;;;;;;29.40;26.80;;;19.00;39.60;;;;;;4936543;29;20217;-76
2022/03/20 16:37:37;;;;;;;26.27;23.70;;;18.20;40.70;;;;;;4934930;29;20245;-76
2022/03/20 16:40:07;;;;;;;25.73;23.23;;;17.60;42.20;;;;;;4935943;29;20214;-76
2022/03/20 16:42:33;;;;;;;22.90;19.27;;;17.20;43.20;;;;;;4936052;29;20175;-76
2022/03/20 16:45:06;;;;;;;19.43;17.40;;;17.00;43.20;;;;;;4935937;29;20186;-76
2022/03/20 16:47:32;;;;;;;18.73;15.37;;;16.90;43.70;;;;;;4953611;29;20185;-77
2022/03/20 16:49:57;;;;;;;15.93;13.20;;;16.70;43.90;;;;;;4954001;29;20178;-76
2022/03/20 16:52:23;;;;;;;21.13;14.97;;;16.60;44.00;;;;;;4954916;28;20650;-76
2022/03/20 16:54:49;;;;;;;17.73;14.07;;;16.30;44.60;;;;;;4954787;28;20178;-76
2022/03/20 16:57:15;;;;;;;15.23;12.93;;;16.00;45.40;;;;;;4934090;29;20202;-76
2022/03/20 16:59:44;;;;;;;18.90;13.17;;;15.80;46.20;;;;;;4935990;29;20179;-76
2022/03/20 17:02:11;;;;;;;16.73;14.30;;;15.50;46.70;;;;;;4935715;29;20210;-76
2022/03/20 17:04:37;;;;;;;19.00;15.93;;;15.30;47.50;;;;;;4935677;29;20186;-76
2022/03/20 17:07:03;;;;;;;20.17;16.83;;;15.10;48.40;;;;;;4936606;29;20768;-76
2022/03/20 17:09:29;;;;;;;18.20;14.67;;;15.00;49.00;;;;;;4935537;29;20650;-76
2022/03/20 17:11:55;;;;;;;19.07;15.90;;;14.80;49.20;;;;;;4935507;29;20213;-76
2022/03/20 17:14:22;;;;;;;18.63;14.97;;;14.70;49.90;;;;;;4934620;29;20214;-76
2022/03/20 17:16:48;;;;;;;18.00;14.63;;;14.60;50.20;;;;;;4949999;29;20217;-76
2022/03/20 17:19:13;;;;;;;22.63;13.50;;;14.40;50.70;;;;;;4954512;28;20764;-76
2022/03/20 17:21:42;;;;;;;18.90;14.70;;;14.40;51.20;;;;;;4954407;28;20205;-76
2022/03/20 17:24:08;;;;;;;19.60;14.70;;;14.20;51.40;;;;;;4953331;29;20244;-76
2022/03/20 17:26:36;;;;;;;19.30;14.67;;;14.10;51.70;;;;;;4939755;29;20218;-76
2022/03/20 17:29:03;;;;;;;18.67;15.20;;;14.00;52.00;;;;;;4934752;29;20277;-76
2022/03/20 17:31:28;;;;;;;17.97;15.43;;;13.90;51.80;;;;;;4935104;29;20198;-76
2022/03/20 17:33:55;;;;;;;17.67;15.33;;;13.80;52.30;;;;;;4935051;29;20178;-76
2022/03/20 17:36:21;;;;;;;17.50;14.50;;;13.70;52.70;;;;;;4945728;29;20210;-76
2022/03/20 17:38:47;;;;;;;16.77;13.57;;;13.60;52.90;;;;;;4952706;29;20185;-76